Time;durP1;ratioP1;P1;durP2;ratioP2;P2;SDS_P1;SDS_P2;PMS_P1;PMS_P2;Temp;Humidity;BMP_temperature;BMP_pressure;BME280_temperature;BME280_humidity;BME280_pressure;Samples;Min_cycle;Max_cycle;Signal;HPM_P1;HPM_P2
2021/07/25 00:01:13;;;;;;;7.53;6.00;;;20.20;99.90;;;20.28;95.91;97492.88;5035599;28;20638;-63
2021/07/25 00:03:42;;;;;;;7.47;6.50;;;20.20;99.90;;;20.28;97.15;97495.53;5037657;28;20654;-63
2021/07/25 00:06:30;;;;;;;7.53;6.30;;;20.10;99.90;;;20.26;97.14;97504.69;5033542;28;20674;-63
2021/07/25 00:08:59;;;;;;;6.87;5.93;;;20.10;99.90;;;20.24;96.17;97517.28;5035174;28;20646;-63
2021/07/25 00:11:29;;;;;;;8.00;6.43;;;20.10;99.90;;;20.23;97.30;97526.22;5034542;28;20768;-63
2021/07/25 00:14:02;;;;;;;7.00;6.30;;;20.10;99.90;;;20.22;97.27;97536.00;5035213;28;20734;-63
2021/07/25 00:16:33;;;;;;;9.00;6.57;;;20.10;99.90;;;20.21;95.51;97538.84;5037677;28;21194;-63
2021/07/25 00:19:02;;;;;;;7.13;6.00;;;20.10;99.90;;;20.17;95.65;97541.00;5040158;28;20655;-63
2021/07/25 00:21:30;;;;;;;6.10;5.40;;;20.10;99.90;;;20.13;95.66;97552.13;5032618;28;20735;-63
2021/07/25 00:24:00;;;;;;;7.50;6.70;;;20.00;99.90;;;20.08;95.70;97551.84;5043007;28;20638;-63
2021/07/25 00:26:37;;;;;;;6.80;5.57;;;20.00;99.90;;;20.08;95.94;97546.53;5034437;28;20648;-63
2021/07/25 00:29:08;;;;;;;8.40;6.43;;;20.00;99.90;;;20.11;97.03;97540.88;5039848;28;21056;-63
2021/07/25 00:31:38;;;;;;;7.10;6.27;;;20.00;99.90;;;20.07;97.38;97537.78;5038283;28;20668;-63
2021/07/25 00:34:06;;;;;;;8.37;6.43;;;19.90;99.90;;;20.08;96.80;97541.25;5041473;28;20730;-63
2021/07/25 00:36:35;;;;;;;12.03;6.40;;;20.00;99.90;;;20.08;95.89;97533.28;5034660;28;20646;-63
2021/07/25 00:39:07;;;;;;;11.13;6.30;;;20.00;99.90;;;20.06;96.95;97527.38;5042789;28;20648;-63
2021/07/25 00:41:38;;;;;;;9.33;6.37;;;20.00;99.90;;;20.04;96.90;97524.03;5039231;28;21183;-63
2021/07/25 00:44:07;;;;;;;6.93;5.90;;;19.90;99.90;;;20.05;97.15;97523.06;5038889;28;20699;-63
2021/07/25 00:46:37;;;;;;;8.20;6.40;;;19.90;99.90;;;20.06;95.92;97527.38;5037048;28;20695;-63
2021/07/25 00:49:06;;;;;;;9.03;6.33;;;19.90;99.90;;;20.08;96.95;97533.28;5040551;28;20645;-63
2021/07/25 00:51:34;;;;;;;11.20;6.37;;;20.00;99.90;;;20.09;96.25;97546.38;5037835;28;20664;-63
2021/07/25 00:54:03;;;;;;;8.73;6.20;;;20.00;99.90;;;20.07;97.38;97535.13;5038713;28;20640;-63
2021/07/25 00:56:32;;;;;;;9.90;6.33;;;19.90;99.90;;;20.05;96.18;97538.94;5036626;28;20638;-63
2021/07/25 00:59:02;;;;;;;6.90;6.20;;;19.90;99.90;;;20.06;97.39;97525.53;5042025;28;20749;-63
2021/07/25 01:01:30;;;;;;;7.47;6.47;;;19.90;99.90;;;20.07;96.92;97539.59;5041481;28;20681;-63
2021/07/25 01:04:17;;;;;;;8.20;6.17;;;19.90;99.90;;;20.10;97.78;97536.59;5037225;28;20645;-63
2021/07/25 01:07:02;;;;;;;6.97;5.80;;;19.90;99.90;;;20.09;96.84;97532.31;5036844;28;20790;-63
2021/07/25 01:09:42;;;;;;;6.70;6.00;;;20.00;99.90;;;20.08;97.92;97543.88;5043844;28;21008;-64
2021/07/25 01:12:18;;;;;;;8.60;6.77;;;20.00;99.90;;;20.08;96.36;97535.94;5038007;28;20697;-63
2021/07/25 01:14:50;;;;;;;8.93;6.57;;;20.00;99.90;;;20.07;97.86;97544.88;5040699;28;21209;-63
2021/07/25 01:17:33;;;;;;;10.30;6.57;;;19.90;99.90;;;20.05;97.80;97533.66;5037663;28;20644;-63
2021/07/25 01:20:08;;;;;;;9.90;6.97;;;19.90;99.90;;;20.06;96.60;97530.00;5039628;28;20646;-63
2021/07/25 01:22:39;;;;;;;8.00;6.50;;;20.00;99.90;;;20.05;96.80;97529.16;5036484;28;20642;-63
2021/07/25 01:25:11;;;;;;;7.23;6.53;;;20.00;99.90;;;20.06;96.83;97525.53;5040750;28;20665;-63
2021/07/25 01:27:46;;;;;;;8.63;6.30;;;20.00;99.90;;;20.07;97.49;97526.34;5038762;28;20778;-63
2021/07/25 01:30:19;;;;;;;7.80;7.00;;;20.00;99.90;;;20.06;97.80;97524.72;5037162;28;20655;-63
2021/07/25 01:32:51;;;;;;;7.50;6.70;;;20.00;99.90;;;20.05;96.26;97523.88;5038651;28;20642;-63
2021/07/25 01:35:23;;;;;;;8.67;6.47;;;20.00;99.90;;;20.07;97.00;97523.69;5039547;28;20645;-63
2021/07/25 01:37:52;;;;;;;8.70;6.80;;;20.00;99.90;;;20.08;96.63;97520.88;5039924;28;20665;-63
2021/07/25 01:40:24;;;;;;;10.70;6.97;;;19.90;99.90;;;20.09;96.78;97511.13;5043625;28;20645;-63
2021/07/25 01:42:54;;;;;;;8.63;6.80;;;20.00;99.90;;;20.09;96.48;97500.53;5039693;28;20745;-63
2021/07/25 01:45:25;;;;;;;7.80;7.00;;;20.00;99.90;;;20.11;96.75;97479.97;5043926;28;21208;-63
2021/07/25 01:47:53;;;;;;;9.57;7.30;;;20.00;99.90;;;20.10;97.34;97459.78;5038787;28;21238;-63
2021/07/25 01:50:23;;;;;;;11.33;7.93;;;20.00;99.90;;;20.10;97.94;97465.06;5036268;28;21198;-63
2021/07/25 01:52:55;;;;;;;11.60;8.73;;;20.00;99.90;;;20.08;97.03;97435.31;5041033;28;20646;-63
2021/07/25 01:55:24;;;;;;;10.43;9.10;;;20.00;99.90;;;20.05;98.25;97443.59;5038134;28;23161;-63
2021/07/25 01:57:52;;;;;;;12.30;11.00;;;20.00;99.90;;;20.07;98.62;97483.97;5037856;28;20645;-63
2021/07/25 02:00:21;;;;;;;12.03;10.53;;;19.90;99.90;;;20.10;99.04;97497.69;5033447;28;20745;-63
2021/07/25 02:02:50;;;;;;;15.50;10.27;;;20.00;99.90;;;20.13;99.54;97499.16;5037426;28;21199;-63
2021/07/25 02:05:18;;;;;;;10.90;9.40;;;20.00;99.90;;;20.14;97.71;97493.69;5044695;28;20683;-63
2021/07/25 02:07:48;;;;;;;11.00;7.83;;;20.00;99.90;;;20.14;97.90;97501.63;5041366;28;21160;-63
2021/07/25 02:10:17;;;;;;;10.50;7.60;;;20.00;99.90;;;20.11;99.15;97501.97;5044808;28;20646;-63
2021/07/25 02:12:46;;;;;;;10.20;8.37;;;20.00;99.90;;;20.11;97.88;97507.28;5039440;28;20649;-63
2021/07/25 02:15:15;;;;;;;9.80;8.13;;;20.00;99.90;;;20.12;97.54;97514.22;5038183;28;20646;-63
2021/07/25 02:17:44;;;;;;;12.90;8.00;;;20.00;99.90;;;20.11;98.99;97512.56;5038191;28;20694;-63
2021/07/25 02:20:13;;;;;;;9.27;7.50;;;20.00;99.90;;;20.12;98.84;97513.41;5037524;28;20678;-63
2021/07/25 02:22:42;;;;;;;8.40;7.60;;;20.00;99.90;;;20.11;97.61;97512.56;5037393;28;20656;-63
2021/07/25 02:25:12;;;;;;;8.10;7.30;;;20.00;99.90;;;20.11;98.88;97514.41;5033291;28;20680;-63
2021/07/25 02:27:41;;;;;;;10.57;7.47;;;20.00;99.90;;;20.08;98.48;97520.06;5037765;28;20633;-63
2021/07/25 02:30:11;;;;;;;9.87;7.77;;;20.00;99.90;;;20.06;98.57;97530.00;5032905;28;20652;-63
2021/07/25 02:32:39;;;;;;;9.27;7.47;;;20.00;99.90;;;20.04;98.72;97543.44;5039374;28;20665;-63
2021/07/25 02:35:08;;;;;;;10.37;7.23;;;20.00;99.90;;;20.06;97.20;97545.91;5032731;28;20761;-63
2021/07/25 02:37:37;;;;;;;10.80;7.37;;;20.00;99.90;;;20.06;98.27;97548.56;5036381;28;20642;-63
2021/07/25 02:40:07;;;;;;;8.13;7.07;;;20.00;99.90;;;20.05;98.00;97555.66;5037113;28;20653;-63
2021/07/25 02:42:38;;;;;;;9.37;7.43;;;20.00;99.90;;;20.03;98.66;97576.19;5039079;28;20651;-63
2021/07/25 02:45:07;;;;;;;10.13;7.97;;;19.90;99.90;;;20.02;99.19;97565.78;5038009;28;20740;-63
2021/07/25 02:47:36;;;;;;;8.63;7.20;;;20.00;99.90;;;20.01;98.90;97570.25;5037254;28;20680;-63
2021/07/25 02:50:06;;;;;;;8.87;8.00;;;20.00;99.90;;;20.01;97.89;97559.66;5033465;28;20675;-63
2021/07/25 02:52:34;;;;;;;8.60;7.70;;;19.90;99.90;;;20.01;98.37;97569.41;5034137;28;20675;-63
2021/07/25 02:55:03;;;;;;;10.37;7.90;;;20.00;99.90;;;20.00;96.91;97551.91;5042105;28;21022;-63
2021/07/25 02:57:32;;;;;;;9.33;8.13;;;19.90;99.90;;;20.01;97.92;97545.59;5036821;28;20653;-63
2021/07/25 03:00:01;;;;;;;11.63;8.20;;;19.90;99.90;;;19.98;97.40;97551.22;5036058;28;20767;-64
2021/07/25 03:02:31;;;;;;;9.13;7.73;;;19.90;99.90;;;19.98;98.55;97553.88;5035969;28;20656;-64
2021/07/25 03:05:00;;;;;;;11.30;8.13;;;20.00;99.90;;;19.98;97.95;97551.22;5035556;28;20646;-63
2021/07/25 03:07:29;;;;;;;13.13;8.27;;;19.90;99.90;;;19.98;96.93;97543.28;5034429;28;20634;-63
2021/07/25 03:09:57;;;;;;;11.40;8.20;;;19.90;99.90;;;19.98;96.96;97538.00;5032097;28;21011;-63
2021/07/25 03:12:26;;;;;;;10.57;7.87;;;19.90;99.90;;;19.96;98.44;97527.56;5045313;28;21107;-63
2021/07/25 03:14:54;;;;;;;12.57;9.10;;;19.90;99.90;;;19.95;96.95;97536.53;5035130;28;21305;-63
2021/07/25 03:17:24;;;;;;;12.43;8.20;;;19.90;99.90;;;19.96;97.65;97540.00;5033622;28;20649;-63
2021/07/25 03:19:53;;;;;;;11.63;9.30;;;19.90;99.90;;;19.98;98.88;97553.88;5035694;28;21032;-63
2021/07/25 03:22:37;;;;;;;9.50;7.80;;;19.90;99.90;;;20.02;98.29;97547.25;5062707;28;21438;-64
2021/07/25 03:25:08;;;;;;;9.87;8.20;;;19.90;99.90;;;20.05;99.25;97554.84;5046390;28;20641;-63
2021/07/25 03:27:36;;;;;;;9.77;8.53;;;19.90;99.90;;;20.06;98.71;97541.41;5048831;28;20641;-64
2021/07/25 03:30:07;;;;;;;15.07;8.40;;;20.00;99.90;;;20.09;98.66;97543.72;5052445;28;20684;-64
2021/07/25 03:32:36;;;;;;;9.73;8.27;;;20.00;99.90;;;20.13;99.31;97552.13;5040855;28;21057;-64
2021/07/25 03:35:05;;;;;;;12.27;9.53;;;20.00;99.90;;;20.13;98.47;97542.38;5046837;28;20992;-64
2021/07/25 03:37:34;;;;;;;12.00;8.90;;;20.00;99.90;;;20.13;97.71;97542.38;5046622;28;21167;-63
2021/07/25 03:40:05;;;;;;;9.43;8.40;;;20.00;99.90;;;20.13;97.99;97545.03;5048483;28;21251;-64
2021/07/25 03:42:33;;;;;;;12.43;9.73;;;20.00;99.90;;;20.14;99.22;97537.88;5053060;28;21022;-63
2021/07/25 03:45:02;;;;;;;11.80;8.43;;;20.00;99.90;;;20.14;98.87;97551.13;5050826;28;20711;-64
2021/07/25 03:47:30;;;;;;;12.23;9.50;;;20.10;99.90;;;20.14;99.19;97543.19;5047681;28;20669;-64
2021/07/25 03:49:59;;;;;;;10.13;8.97;;;20.10;99.90;;;20.08;97.56;97542.06;5049761;28;20688;-64
2021/07/25 03:52:28;;;;;;;11.40;8.83;;;20.00;99.90;;;20.06;99.61;97545.91;5047341;28;20648;-63
2021/07/25 03:54:57;;;;;;;10.20;8.50;;;20.00;99.90;;;20.05;99.40;97554.84;5048389;28;20642;-64
2021/07/25 03:57:27;;;;;;;10.73;7.97;;;20.00;99.90;;;20.03;98.09;97543.59;5042796;28;21206;-64
2021/07/25 03:59:55;;;;;;;9.37;8.40;;;20.00;99.90;;;20.01;98.37;97545.59;5045864;28;21235;-64
2021/07/25 04:02:24;;;;;;;10.27;9.17;;;20.00;99.90;;;20.00;98.26;97546.59;5046953;28;20656;-64
2021/07/25 04:04:53;;;;;;;11.57;8.97;;;20.00;99.90;;;19.96;99.14;97546.09;5048660;28;20655;-64
2021/07/25 04:07:22;;;;;;;10.93;8.73;;;19.90;99.90;;;19.94;98.61;97534.06;5043612;28;20767;-63
2021/07/25 04:09:50;;;;;;;17.03;10.77;;;19.90;99.90;;;19.95;98.22;97543.63;5051621;28;20958;-64
2021/07/25 04:12:19;;;;;;;19.50;10.07;;;20.00;99.90;;;19.97;98.64;97553.06;5042448;28;20660;-64
2021/07/25 04:14:49;;;;;;;11.80;10.33;;;19.90;99.90;;;19.98;97.72;97545.94;5047152;28;20662;-63
2021/07/25 04:17:18;;;;;;;10.83;9.73;;;19.90;99.90;;;19.95;99.72;97559.53;5042475;28;21020;-63
2021/07/25 04:19:47;;;;;;;12.37;9.90;;;19.90;99.90;;;19.98;99.72;97559.16;5041752;28;20744;-63
2021/07/25 04:22:15;;;;;;;10.83;9.33;;;19.90;99.90;;;20.00;99.76;97575.72;5037272;28;20674;-64
2021/07/25 04:24:44;;;;;;;9.30;7.77;;;20.00;99.90;;;19.98;99.46;97570.59;5044049;28;20662;-63
2021/07/25 04:27:13;;;;;;;12.27;8.37;;;19.90;99.90;;;19.95;97.61;97560.38;5046410;28;21215;-63
2021/07/25 04:29:49;;;;;;;9.27;8.10;;;19.90;99.90;;;19.96;97.39;97561.19;5043427;28;20655;-63
2021/07/25 04:32:18;;;;;;;10.03;8.70;;;20.00;99.90;;;19.97;98.63;97566.31;5045353;28;20632;-63
2021/07/25 04:34:48;;;;;;;10.40;8.50;;;20.00;99.90;;;20.00;99.19;97562.50;5035027;28;20741;-63
2021/07/25 04:37:23;;;;;;;8.80;7.90;;;20.00;99.90;;;20.03;99.06;97562.94;5033614;28;20752;-63
2021/07/25 04:39:53;;;;;;;9.00;7.77;;;20.00;99.90;;;20.05;99.16;97563.59;5030265;28;21033;-63
2021/07/25 04:42:24;;;;;;;9.70;8.73;;;20.00;99.90;;;20.10;98.25;97573.66;5028633;28;20669;-63
2021/07/25 04:45:03;;;;;;;9.80;8.80;;;20.00;99.90;;;20.16;99.04;97567.66;5033483;28;20660;-64
2021/07/25 04:47:39;;;;;;;15.00;8.70;;;20.10;99.90;;;20.21;99.34;97567.97;5040456;28;20638;-64
2021/07/25 04:50:10;;;;;;;11.47;8.37;;;20.10;99.90;;;20.21;97.93;97575.94;5037873;28;20641;-64
2021/07/25 04:52:41;;;;;;;9.57;8.37;;;20.10;99.90;;;20.21;98.17;97576.75;5033200;28;21101;-63
2021/07/25 04:55:13;;;;;;;9.10;7.43;;;20.10;99.90;;;20.23;98.39;97587.16;5031498;28;20768;-63
2021/07/25 04:57:44;;;;;;;9.87;8.87;;;20.10;99.90;;;20.31;98.27;97582.59;5035994;28;20646;-63
2021/07/25 05:00:16;;;;;;;9.60;8.60;;;20.20;99.90;;;20.33;97.48;97586.75;5034495;28;20651;-63
2021/07/25 05:02:46;;;;;;;9.27;8.10;;;20.20;99.90;;;20.33;98.02;97589.38;5030587;28;22734;-63
2021/07/25 05:05:16;;;;;;;10.17;9.17;;;20.20;99.90;;;20.32;98.02;97598.31;5026476;28;20736;-63
2021/07/25 05:07:45;;;;;;;9.87;8.87;;;20.30;99.90;;;20.31;97.79;97601.16;5028731;28;21221;-63
2021/07/25 05:10:15;;;;;;;8.83;7.93;;;20.30;99.90;;;20.29;97.51;97603.16;5026387;28;20689;-63
2021/07/25 05:12:50;;;;;;;10.90;8.87;;;20.20;99.90;;;20.28;98.06;97603.34;5027485;28;20716;-63
2021/07/25 05:15:23;;;;;;;9.80;8.80;;;20.20;99.90;;;20.29;98.10;97600.50;5031018;28;20640;-63
2021/07/25 05:17:57;;;;;;;12.00;8.73;;;20.20;99.90;;;20.29;99.02;97595.22;5035927;28;20693;-63
2021/07/25 05:20:38;;;;;;;11.60;9.43;;;20.20;99.90;;;20.32;99.26;97591.41;5029398;28;20744;-63
2021/07/25 05:23:18;;;;;;;10.93;9.20;;;20.30;99.90;;;20.34;97.75;97590.19;5035633;28;20667;-63
2021/07/25 05:25:51;;;;;;;11.53;9.70;;;20.20;99.90;;;20.36;98.68;97596.97;5029485;28;20656;-63
2021/07/25 05:28:22;;;;;;;10.77;9.43;;;20.20;99.90;;;20.45;99.39;97595.09;5032391;28;20743;-63
2021/07/25 05:30:55;;;;;;;10.63;9.53;;;20.30;99.90;;;20.52;99.37;97598.69;5031677;28;20652;-63
2021/07/25 05:33:25;;;;;;;12.27;10.67;;;20.40;99.90;;;20.54;99.51;97589.56;5034234;28;20649;-63
2021/07/25 05:35:57;;;;;;;15.53;11.20;;;20.40;99.90;;;20.57;99.98;97594.50;5034785;28;20637;-63
2021/07/25 05:38:26;;;;;;;12.07;10.87;;;20.50;99.90;;;20.59;98.83;97592.50;5033239;28;20763;-63
2021/07/25 05:40:54;;;;;;;15.33;10.43;;;20.50;99.90;;;20.60;98.51;97599.44;5028602;28;20745;-63
2021/07/25 05:43:23;;;;;;;11.30;9.93;;;20.50;99.90;;;20.63;99.45;97603.59;5029204;28;20654;-63
2021/07/25 05:45:53;;;;;;;12.30;10.60;;;20.60;99.90;;;20.68;98.77;97609.19;5030625;28;20693;-63
2021/07/25 05:48:21;;;;;;;13.10;11.70;;;20.60;99.90;;;20.70;99.37;97612.47;5024323;28;20653;-63
2021/07/25 05:50:50;;;;;;;12.40;10.20;;;20.60;99.90;;;20.67;98.37;97611.00;5032294;28;20649;-63
2021/07/25 05:53:18;;;;;;;10.53;9.23;;;20.50;99.90;;;20.62;99.22;97613.34;5031999;28;20744;-63
2021/07/25 05:55:47;;;;;;;11.57;10.43;;;20.50;99.90;;;20.64;98.77;97614.00;5029607;28;20649;-63
2021/07/25 05:58:15;;;;;;;13.57;10.30;;;20.50;99.90;;;20.65;99.45;97612.97;5035461;28;20644;-63
2021/07/25 06:00:44;;;;;;;11.40;9.77;;;20.50;99.90;;;20.63;99.70;97611.53;5023826;28;21069;-63
2021/07/25 06:03:14;;;;;;;10.30;9.20;;;20.50;99.90;;;20.63;99.68;97609.69;5031887;28;20701;-63
2021/07/25 06:05:43;;;;;;;11.97;10.60;;;20.50;99.90;;;20.69;99.94;97618.78;5031099;28;20664;-63
2021/07/25 06:08:12;;;;;;;13.23;10.20;;;20.60;99.90;;;20.74;99.35;97617.25;5033000;28;20642;-63
2021/07/25 06:10:43;;;;;;;14.00;10.50;;;20.60;99.90;;;20.78;98.93;97607.94;5027057;28;20700;-63
2021/07/25 06:13:12;;;;;;;12.47;11.17;;;20.70;99.90;;;20.85;98.34;97608.84;5026089;28;20645;-63
2021/07/25 06:15:40;;;;;;;13.43;11.43;;;20.70;99.90;;;20.93;99.27;97616.75;5024381;28;20677;-63
2021/07/25 06:18:09;;;;;;;12.53;11.03;;;20.80;99.90;;;21.02;99.43;97619.16;5036123;28;21089;-63
2021/07/25 06:20:39;;;;;;;13.50;11.60;;;20.90;99.90;;;21.10;99.02;97616.41;5034095;28;21303;-63
2021/07/25 06:23:09;;;;;;;14.00;12.50;;;21.00;99.90;;;21.18;99.53;97616.31;5031885;28;20786;-63
2021/07/25 06:25:38;;;;;;;13.60;12.20;;;21.00;99.90;;;21.26;99.40;97612.75;5030011;28;20647;-63
2021/07/25 06:28:07;;;;;;;13.30;11.70;;;21.10;99.90;;;21.36;98.84;97617.63;5028703;28;20688;-63
2021/07/25 06:30:35;;;;;;;13.80;12.30;;;21.20;99.90;;;21.55;99.75;97614.44;5024126;28;21214;-63
2021/07/25 06:33:07;;;;;;;13.97;11.30;;;21.30;99.90;;;21.66;98.91;97615.81;5041160;28;20642;-63
2021/07/25 06:35:37;;;;;;;14.33;12.27;;;21.50;99.90;;;21.77;98.95;97624.16;5022902;28;21317;-63
2021/07/25 06:38:09;;;;;;;13.37;12.00;;;21.60;99.90;;;21.88;98.91;97635.09;5030499;28;20647;-63
2021/07/25 06:40:43;;;;;;;12.50;11.20;;;21.70;99.90;;;21.97;98.04;97631.34;5028627;28;20708;-63
2021/07/25 06:43:12;;;;;;;13.13;11.80;;;21.80;99.90;;;22.09;98.73;97621.88;5021607;28;20693;-63
2021/07/25 06:45:42;;;;;;;14.70;11.90;;;21.90;99.90;;;22.17;96.68;97623.59;5029825;28;20750;-63
2021/07/25 06:48:18;;;;;;;12.20;10.90;;;22.00;99.90;;;22.26;96.57;97621.47;5029721;28;20644;-63
2021/07/25 06:50:49;;;;;;;14.50;11.60;;;22.10;99.90;;;22.40;96.57;97617.97;5032549;28;20707;-63
2021/07/25 06:53:21;;;;;;;13.43;10.80;;;22.20;99.90;;;22.55;96.22;97616.09;5027050;28;21402;-63
2021/07/25 06:55:52;;;;;;;13.07;11.13;;;22.30;99.90;;;22.67;95.22;97613.72;5024495;28;20737;-63
2021/07/25 06:58:21;;;;;;;15.63;11.20;;;22.40;99.90;;;22.77;94.75;97617.69;5032799;28;20687;-63
2021/07/25 07:00:50;;;;;;;15.00;12.30;;;22.50;99.90;;;22.82;95.17;97618.78;5020901;28;20641;-63
2021/07/25 07:03:20;;;;;;;13.30;11.70;;;22.60;99.90;;;22.83;95.37;97623.06;5031004;28;20737;-63
2021/07/25 07:05:49;;;;;;;14.70;10.20;;;22.60;99.90;;;22.89;94.11;97609.00;5046340;28;20664;-63
2021/07/25 07:08:23;;;;;;;13.40;12.00;;;22.70;99.90;;;23.03;94.90;97604.63;5022936;28;20747;-63
2021/07/25 07:10:52;;;;;;;12.30;11.00;;;22.80;99.90;;;23.17;92.90;97604.56;5029677;28;20691;-63
2021/07/25 07:13:21;;;;;;;12.07;10.87;;;22.90;99.90;;;23.32;92.37;97611.41;5024581;28;20643;-63
2021/07/25 07:15:54;;;;;;;10.67;9.67;;;23.10;99.90;;;23.50;91.81;97598.41;5030551;28;20648;-63
2021/07/25 07:18:22;;;;;;;11.40;9.80;;;23.20;99.90;;;23.86;89.17;97604.34;5026484;28;20647;-63
2021/07/25 07:20:51;;;;;;;10.83;9.53;;;23.50;99.90;;;24.45;88.23;97595.56;5026689;28;20680;-63
2021/07/25 07:23:24;;;;;;;12.00;10.63;;;24.00;99.90;;;24.97;86.46;97601.75;5026377;28;20664;-63
2021/07/25 07:25:55;;;;;;;11.27;9.37;;;24.40;99.90;;;25.10;84.68;97609.78;5030395;28;20647;-63
2021/07/25 07:28:24;;;;;;;10.90;9.80;;;24.60;99.90;;;24.98;83.93;97606.06;5021866;28;20652;-66
2021/07/25 07:30:52;;;;;;;15.50;10.40;;;24.60;99.90;;;24.90;84.94;97600.94;5029248;28;20703;-66
2021/07/25 07:33:22;;;;;;;11.20;9.73;;;24.60;99.90;;;25.03;83.71;97601.75;5027055;28;20638;-63
2021/07/25 07:35:51;;;;;;;13.50;9.97;;;24.70;99.90;;;25.51;84.15;97595.94;5029729;28;20896;-63
2021/07/25 07:38:21;;;;;;;9.80;8.37;;;25.10;99.90;;;25.58;81.26;97607.44;5027111;28;20693;-63
2021/07/25 07:40:50;;;;;;;12.20;10.10;;;25.10;99.90;;;25.71;81.84;97602.13;5024522;28;20676;-63
2021/07/25 07:43:20;;;;;;;13.23;9.13;;;25.30;99.90;;;26.20;78.23;97603.94;5026562;28;20655;-62
2021/07/25 07:45:50;;;;;;;11.43;8.90;;;25.60;99.90;;;26.58;78.34;97605.63;5022614;28;21206;-62
2021/07/25 07:48:20;;;;;;;10.10;8.97;;;26.00;99.90;;;26.93;76.60;97601.47;5027567;28;20656;-62
2021/07/25 07:50:49;;;;;;;10.80;8.50;;;26.30;99.70;;;27.28;78.14;97595.38;5023929;28;21285;-62
2021/07/25 07:53:19;;;;;;;10.50;9.40;;;26.70;99.90;;;27.26;75.25;97602.84;5021193;28;20679;-63
2021/07/25 07:55:50;;;;;;;13.83;9.13;;;26.70;97.30;;;27.33;75.48;97603.56;5023829;28;20714;-63
2021/07/25 07:58:18;;;;;;;10.90;9.13;;;26.90;97.60;;;27.13;75.39;97604.81;5022559;28;20750;-63
2021/07/25 08:00:48;;;;;;;9.37;8.47;;;26.70;97.20;;;26.88;74.91;97598.59;5023420;28;20692;-63
2021/07/25 08:03:17;;;;;;;10.27;9.27;;;26.60;95.90;;;26.74;78.28;97590.88;5030051;28;20674;-63
2021/07/25 08:05:46;;;;;;;8.63;7.60;;;26.50;98.30;;;26.61;76.12;97585.59;5022156;28;20669;-62
2021/07/25 08:08:14;;;;;;;9.40;8.50;;;26.40;96.60;;;26.43;75.57;97585.53;5026403;28;21228;-63
2021/07/25 08:10:43;;;;;;;8.60;7.80;;;26.30;96.20;;;26.32;77.38;97575.50;5019572;28;21288;-63
2021/07/25 08:13:14;;;;;;;12.40;7.83;;;26.20;97.70;;;26.25;76.68;97572.03;5024343;28;20662;-63
2021/07/25 08:15:43;;;;;;;8.10;7.30;;;26.10;96.80;;;26.16;76.69;97573.31;5027702;28;20662;-62
2021/07/25 08:18:12;;;;;;;8.23;7.53;;;26.00;96.60;;;26.08;77.14;97573.56;5029995;28;20633;-63
2021/07/25 08:20:40;;;;;;;9.03;8.13;;;25.90;97.10;;;25.97;77.52;97570.72;5024586;28;20783;-62
2021/07/25 08:23:09;;;;;;;11.63;9.17;;;25.80;97.00;;;25.84;77.26;97576.13;5026395;28;21022;-63
2021/07/25 08:25:40;;;;;;;53.53;30.10;;;25.70;96.90;;;25.81;78.81;97570.41;5026045;28;20746;-62
2021/07/25 08:28:09;;;;;;;20.00;13.53;;;25.60;98.30;;;25.78;78.82;97576.16;5028760;28;20711;-62
2021/07/25 08:30:39;;;;;;;9.17;7.50;;;25.60;98.00;;;25.71;78.46;97570.84;5027532;28;20659;-62
2021/07/25 08:33:14;;;;;;;8.80;7.93;;;25.50;97.80;;;25.63;78.90;97572.88;5026680;28;20644;-62
2021/07/25 08:35:42;;;;;;;8.67;7.80;;;25.50;98.10;;;25.51;78.16;97579.91;5027801;28;20700;-63
2021/07/25 08:38:13;;;;;;;10.90;7.83;;;25.30;97.50;;;25.37;77.34;97583.66;5026410;28;21171;-63
2021/07/25 08:41:07;;;;;;;14.80;8.00;;;25.20;97.10;;;25.30;79.57;97572.19;5028042;28;21146;-62
2021/07/25 08:43:40;;;;;;;9.17;8.27;;;25.10;98.10;;;25.27;80.28;97583.28;5025150;28;21221;-62
2021/07/25 08:46:16;;;;;;;9.27;8.37;;;25.10;99.10;;;25.19;81.27;97591.47;5024768;28;20749;-62
2021/07/25 08:48:50;;;;;;;9.63;8.63;;;25.00;99.50;;;25.20;80.72;97592.31;5030016;28;20627;-62
2021/07/25 08:51:21;;;;;;;15.07;13.57;;;25.00;99.30;;;25.27;80.69;97593.97;5024787;28;20648;-62
2021/07/25 08:54:00;;;;;;;9.00;8.10;;;25.10;99.80;;;25.35;81.58;97596.41;5027712;28;21187;-62
2021/07/25 08:56:31;;;;;;;10.57;9.57;;;25.10;99.90;;;25.31;81.08;97595.16;5030355;28;21003;-62
2021/07/25 08:59:06;;;;;;;10.97;9.90;;;25.10;99.90;;;25.32;81.10;97594.16;5027220;28;20683;-62
2021/07/25 09:01:41;;;;;;;9.90;8.90;;;25.10;99.90;;;25.31;80.74;97597.84;5024943;28;20731;-62
2021/07/25 09:04:11;;;;;;;9.10;8.20;;;25.10;99.90;;;25.29;80.91;97596.44;5025203;28;20671;-62
2021/07/25 09:06:45;;;;;;;9.10;8.20;;;25.00;99.90;;;25.24;81.67;97607.72;5031710;28;20687;-62
2021/07/25 09:09:14;;;;;;;9.60;8.60;;;25.00;99.90;;;25.24;82.17;97598.88;5032824;28;20663;-62
2021/07/25 09:11:43;;;;;;;9.57;8.20;;;25.10;99.90;;;25.20;80.43;97603.81;5026911;28;20624;-62
2021/07/25 09:14:12;;;;;;;9.20;8.10;;;25.00;99.70;;;25.13;80.88;97596.03;5024743;28;20701;-62
2021/07/25 09:16:42;;;;;;;9.27;8.37;;;24.90;99.60;;;25.16;81.77;97602.56;5029739;28;20619;-62
2021/07/25 09:19:11;;;;;;;8.80;8.00;;;24.90;99.90;;;25.10;80.36;97597.25;5029389;28;20689;-62
2021/07/25 09:21:43;;;;;;;9.47;8.10;;;24.90;99.60;;;25.07;81.11;97608.34;5027798;28;21084;-62
2021/07/25 09:24:23;;;;;;;9.33;8.30;;;24.90;99.90;;;25.00;80.71;97607.50;5026270;28;21191;-62
2021/07/25 09:26:54;;;;;;;8.70;7.90;;;24.80;99.50;;;24.91;80.77;97599.88;5027647;28;21281;-62
2021/07/25 09:29:26;;;;;;;11.30;8.07;;;24.80;99.60;;;24.89;81.59;97604.63;5029695;28;20648;-62
2021/07/25 09:32:14;;;;;;;10.93;8.57;;;24.70;99.90;;;24.87;82.20;97602.16;5029619;28;20739;-62
2021/07/25 09:34:45;;;;;;;9.13;8.23;;;24.70;99.90;;;24.86;82.33;97600.50;5022001;28;21167;-62
2021/07/25 09:37:16;;;;;;;9.83;8.90;;;24.70;99.90;;;24.87;82.47;97604.00;5027015;28;21196;-62
2021/07/25 09:39:48;;;;;;;10.00;8.60;;;24.70;99.90;;;24.89;83.24;97602.75;5024783;28;20651;-62
2021/07/25 09:42:27;;;;;;;11.40;10.30;;;24.70;99.90;;;24.94;84.55;97604.81;5027278;28;20631;-62
2021/07/25 09:44:58;;;;;;;9.83;8.83;;;24.80;99.90;;;24.92;82.77;97597.03;5025184;28;21283;-62
2021/07/25 09:47:32;;;;;;;9.50;8.60;;;24.80;99.90;;;24.97;83.71;97607.88;5028104;28;20673;-62
2021/07/25 09:50:05;;;;;;;8.47;7.33;;;24.80;99.90;;;24.98;82.85;97606.06;5025152;28;20679;-62
2021/07/25 09:52:36;;;;;;;8.10;7.40;;;24.80;99.90;;;25.01;82.64;97600.34;5026811;28;20722;-62
2021/07/25 09:55:07;;;;;;;8.50;7.23;;;24.80;99.90;;;24.99;82.43;97605.88;5022236;28;20648;-62
2021/07/25 09:57:37;;;;;;;8.23;7.43;;;24.80;99.90;;;24.98;81.87;97606.06;5024331;28;20660;-62
2021/07/25 10:00:11;;;;;;;8.00;7.20;;;24.80;99.90;;;24.94;82.53;97599.47;5025112;28;20657;-62
2021/07/25 10:02:45;;;;;;;8.40;7.60;;;24.80;99.90;;;24.92;82.11;97601.53;5024458;28;20635;-63
2021/07/25 10:05:16;;;;;;;8.67;7.73;;;24.80;99.90;;;24.86;81.87;97603.19;5023700;28;20667;-62
2021/07/25 10:07:46;;;;;;;9.13;8.23;;;24.70;99.90;;;24.80;82.78;97597.84;5028370;28;20655;-62
2021/07/25 10:10:17;;;;;;;13.20;11.80;;;24.70;99.90;;;24.76;83.07;97607.28;5031185;28;21152;-62
2021/07/25 10:12:47;;;;;;;9.13;8.33;;;24.70;99.90;;;24.75;85.03;97608.31;5022337;28;20643;-62
2021/07/25 10:15:17;;;;;;;9.43;8.43;;;24.70;99.90;;;24.73;86.04;97615.69;5019772;28;20638;-62
2021/07/25 10:17:51;;;;;;;8.70;7.87;;;24.70;99.90;;;24.71;86.28;97607.88;5019462;28;20770;-62
2021/07/25 10:20:21;;;;;;;10.30;7.60;;;24.60;99.90;;;24.73;85.30;97613.00;5029529;28;20652;-63
2021/07/25 10:22:52;;;;;;;7.57;6.77;;;24.60;99.90;;;24.78;84.57;97610.59;5028315;28;21267;-65
2021/07/25 10:25:23;;;;;;;8.63;7.73;;;24.70;99.90;;;24.85;84.03;97614.91;5026147;28;20656;-61
2021/07/25 10:27:57;;;;;;;8.03;7.23;;;24.70;99.90;;;24.95;85.74;97625.16;5024463;28;20625;-65
2021/07/25 10:30:28;;;;;;;8.60;7.80;;;24.80;99.90;;;24.96;84.65;97616.09;5021988;28;20703;-62